Time;durP1;ratioP1;P1;durP2;ratioP2;P2;SDS_P1;SDS_P2;PMS_P1;PMS_P2;Temp;Humidity;BMP_temperature;BMP_pressure;BME280_temperature;BME280_humidity;BME280_pressure;Samples;Min_cycle;Max_cycle;Signal;HPM_P1;HPM_P2
2023/10/23 00:01:06;;;;;;;;;;;;;;;14.94;98.80;100078.16;5112001;28;20875;-84
2023/10/23 00:03:31;;;;;;;;;;;;;;;14.61;100.00;100076.31;5132371;27;19950;-85
2023/10/23 00:05:56;;;;;;;;;;;;;;;14.64;100.00;100075.81;5131727;27;20307;-84
2023/10/23 00:08:22;;;;;;;;;;;;;;;14.77;99.75;100075.50;5115887;27;19934;-84
2023/10/23 00:10:47;;;;;;;;;;;;;;;14.39;100.00;100068.97;5111084;28;20859;-83
2023/10/23 00:13:12;;;;;;;;;;;;;;;14.60;100.00;100069.31;5114454;27;20036;-84
2023/10/23 00:15:38;;;;;;;;;;;;;;;14.81;99.66;100073.09;5118301;27;20439;-83
2023/10/23 00:18:04;;;;;;;;;;;;;;;14.77;98.76;100080.03;5118738;27;19915;-84
2023/10/23 00:20:29;;;;;;;;;;;;;;;14.42;100.00;100079.19;5128428;27;20014;-84
2023/10/23 00:22:54;;;;;;;;;;;;;;;14.34;100.00;100068.06;5130791;27;19965;-83
2023/10/23 00:25:20;;;;;;;;;;;;;;;14.02;100.00;100071.31;5111151;27;20001;-83
2023/10/23 00:27:45;;;;;;;;;;;;;;;14.01;100.00;100067.78;5114884;27;19979;-84
2023/10/23 00:30:10;;;;;;;;;;;;;;;14.31;100.00;100061.31;5117966;27;19916;-84
2023/10/23 00:32:36;;;;;;;;;;;;;;;14.64;100.00;100065.09;5107439;28;19912;-83
2023/10/23 00:35:01;;;;;;;;;;;;;;;14.75;98.96;100069.56;5115283;27;19987;-84
2023/10/23 00:37:26;;;;;;;;;;;;;;;14.83;98.71;100062.94;5125776;27;20010;-84
2023/10/23 00:39:52;;;;;;;;;;;;;;;15.12;96.39;100063.63;5130610;27;19915;-85
2023/10/23 00:42:17;;;;;;;;;;;;;;;14.73;97.50;100068.16;5118377;27;19920;-83
2023/10/23 00:44:42;;;;;;;;;;;;;;;14.18;100.00;100072.34;5123855;27;19922;-84
2023/10/23 00:47:08;;;;;;;;;;;;;;;13.89;100.00;100082.31;5113913;27;19915;-83
2023/10/23 00:49:33;;;;;;;;;;;;;;;13.58;100.00;100079.06;5118224;27;19915;-82
2023/10/23 00:52:00;;;;;;;;;;;;;;;13.31;100.00;100089.50;5122989;27;19932;-84
2023/10/23 00:54:26;;;;;;;;;;;;;;;13.20;100.00;100088.44;5110549;28;20010;-85
2023/10/23 00:56:51;;;;;;;;;;;;;;;13.46;100.00;100096.00;5110196;28;20015;-84
2023/10/23 00:59:16;;;;;;;;;;;;;;;13.84;100.00;100099.13;5115210;27;19959;-84
2023/10/23 01:01:43;;;;;;;;;;;;;;;14.29;100.00;100101.00;5125760;27;20441;-85
2023/10/23 01:04:08;;;;;;;;;;;;;;;14.24;100.00;100098.22;5127564;27;19919;-83
2023/10/23 01:06:33;;;;;;;;;;;;;;;14.21;100.00;100093.34;5127365;27;19915;-85
2023/10/23 01:08:59;;;;;;;;;;;;;;;14.23;100.00;100086.69;5125963;27;19963;-84
2023/10/23 01:11:24;;;;;;;;;;;;;;;14.52;100.00;100089.28;5111953;27;19915;-84
2023/10/23 01:13:52;;;;;;;;;;;;;;;13.59;100.00;100086.88;5130899;27;19915;-84
2023/10/23 01:16:17;;;;;;;;;;;;;;;13.21;100.00;100090.88;5125259;28;19923;-85
2023/10/23 01:18:42;;;;;;;;;;;;;;;12.89;100.00;100094.97;5114249;28;19916;-85
2023/10/23 01:21:07;;;;;;;;;;;;;;;12.66;100.00;100091.25;5142445;27;20042;-84
2023/10/23 01:23:35;;;;;;;;;;;;;;;12.66;100.00;100096.59;5113962;28;19963;-84
2023/10/23 01:26:01;;;;;;;;;;;;;;;13.16;100.00;100098.81;5109636;28;19962;-84
2023/10/23 01:28:26;;;;;;;;;;;;;;;13.60;100.00;100095.72;5112534;28;19919;-85
2023/10/23 01:30:51;;;;;;;;;;;;;;;14.04;100.00;100096.81;5118732;28;19919;-84
2023/10/23 01:33:16;;;;;;;;;;;;;;;14.34;100.00;100093.00;5123821;28;19915;-84
2023/10/23 01:35:42;;;;;;;;;;;;;;;14.27;100.00;100100.41;5116872;28;19919;-84
2023/10/23 01:38:07;;;;;;;;;;;;;;;14.23;100.00;100108.13;5112100;28;19916;-84
2023/10/23 01:40:32;;;;;;;;;;;;;;;14.11;100.00;100120.00;5113776;28;19912;-84
2023/10/23 01:42:58;;;;;;;;;;;;;;;13.51;100.00;100115.91;5123263;27;19915;-84
2023/10/23 01:45:23;;;;;;;;;;;;;;;13.18;100.00;100120.00;5129974;27;19967;-84
2023/10/23 01:47:48;;;;;;;;;;;;;;;13.17;100.00;100121.84;5118647;27;19938;-84
2023/10/23 01:50:14;;;;;;;;;;;;;;;13.50;100.00;100115.06;5120780;27;19915;-84
2023/10/23 01:52:41;;;;;;;;;;;;;;;13.77;100.00;100122.56;5128348;27;19916;-84
2023/10/23 01:55:06;;;;;;;;;;;;;;;13.92;100.00;100127.41;5113211;28;19922;-85
2023/10/23 01:57:32;;;;;;;;;;;;;;;13.35;100.00;100126.28;5112777;28;19912;-84
2023/10/23 02:00:04;;;;;;;;;;;;;;;12.90;100.00;100126.06;5116521;27;19955;-84
2023/10/23 02:02:29;;;;;;;;;;;;;;;13.10;100.00;100131.88;5098670;27;19919;-84
2023/10/23 02:04:55;;;;;;;;;;;;;;;13.56;100.00;100135.56;5129236;27;19920;-84
2023/10/23 02:07:20;;;;;;;;;;;;;;;13.86;100.00;100139.91;5124920;27;19916;-84
2023/10/23 02:09:45;;;;;;;;;;;;;;;14.15;99.40;100131.84;5125045;27;19919;-84
2023/10/23 02:12:11;;;;;;;;;;;;;;;13.97;100.00;100128.31;5115679;27;19912;-85
2023/10/23 02:14:36;;;;;;;;;;;;;;;14.13;100.00;100129.41;5113313;27;19953;-83
2023/10/23 02:17:01;;;;;;;;;;;;;;;14.12;100.00;100127.78;5128160;27;20026;-84
2023/10/23 02:19:28;;;;;;;;;;;;;;;14.10;100.00;100126.38;5116475;27;19985;-84
2023/10/23 02:21:53;;;;;;;;;;;;;;;14.09;100.00;100130.94;5112582;28;19970;-85
2023/10/23 02:24:22;;;;;;;;;;;;;;;13.98;100.00;100131.81;5113620;28;19950;-84
2023/10/23 02:26:48;;;;;;;;;;;;;;;13.19;100.00;100121.63;5094204;27;19920;-84
2023/10/23 02:29:13;;;;;;;;;;;;;;;13.52;100.00;100130.91;5117308;27;19971;-84
2023/10/23 02:31:39;;;;;;;;;;;;;;;12.90;100.00;100126.88;5123110;27;19957;-84
2023/10/23 02:34:04;;;;;;;;;;;;;;;12.38;100.00;100124.00;5120613;27;19916;-84
2023/10/23 02:36:30;;;;;;;;;;;;;;;12.30;100.00;100127.84;5116824;27;20019;-84
2023/10/23 02:38:55;;;;;;;;;;;;;;;12.42;100.00;100126.00;5115885;27;20046;-84
2023/10/23 02:41:20;;;;;;;;;;;;;;;12.30;100.00;100121.66;5114954;27;20006;-85
2023/10/23 02:43:46;;;;;;;;;;;;;;;12.46;100.00;100121.84;5112400;28;19916;-84
2023/10/23 02:46:11;;;;;;;;;;;;;;;12.39;100.00;100129.13;5121880;27;19919;-83
2023/10/23 02:48:37;;;;;;;;;;;;;;;12.52;100.00;100135.31;5119625;27;19931;-84
2023/10/23 02:51:02;;;;;;;;;;;;;;;12.69;100.00;100130.09;5126964;27;19915;-84
2023/10/23 02:53:29;;;;;;;;;;;;;;;12.49;100.00;100128.56;5116764;27;19926;-83
2023/10/23 02:55:54;;;;;;;;;;;;;;;12.64;100.00;100133.47;5129611;27;19966;-84
2023/10/23 02:58:19;;;;;;;;;;;;;;;13.14;100.00;100127.69;5126968;27;19968;-83
2023/10/23 03:00:45;;;;;;;;;;;;;;;13.45;100.00;100139.09;5112813;28;19922;-84
2023/10/23 03:03:10;;;;;;;;;;;;;;;13.46;100.00;100132.66;5148005;27;20307;-85
2023/10/23 03:05:35;;;;;;;;;;;;;;;13.57;100.00;100131.03;5130897;27;19969;-85
2023/10/23 03:08:01;;;;;;;;;;;;;;;13.41;100.00;100137.94;5128646;27;19923;-84
2023/10/23 03:10:26;;;;;;;;;;;;;;;13.51;100.00;100140.00;5118690;27;19919;-85
2023/10/23 03:12:52;;;;;;;;;;;;;;;13.66;100.00;100130.41;5118627;27;19922;-84
2023/10/23 03:15:17;;;;;;;;;;;;;;;13.96;100.00;100129.38;5129199;27;19926;-84
2023/10/23 03:17:43;;;;;;;;;;;;;;;13.93;100.00;100121.00;5114211;27;20301;-85
2023/10/23 03:20:08;;;;;;;;;;;;;;;14.17;99.69;100129.75;5112213;28;19968;-85
2023/10/23 03:22:34;;;;;;;;;;;;;;;14.01;100.00;100131.34;5113205;28;19911;-85
2023/10/23 03:24:59;;;;;;;;;;;;;;;14.02;100.00;100133.78;5143199;27;20313;-84
2023/10/23 03:27:24;;;;;;;;;;;;;;;13.85;100.00;100132.91;5112966;27;20308;-84
2023/10/23 03:29:50;;;;;;;;;;;;;;;13.77;100.00;100135.97;5110150;28;19927;-84
2023/10/23 03:32:15;;;;;;;;;;;;;;;13.64;100.00;100137.88;5122083;27;19988;-84
2023/10/23 03:34:40;;;;;;;;;;;;;;;13.54;100.00;100137.66;5106788;28;19978;-84
2023/10/23 03:37:06;;;;;;;;;;;;;;;13.65;100.00;100134.16;5117637;27;19920;-84
2023/10/23 03:39:31;;;;;;;;;;;;;;;13.59;100.00;100127.06;5118930;27;19919;-84
2023/10/23 03:41:56;;;;;;;;;;;;;;;13.29;100.00;100129.91;5122837;27;19942;-83
2023/10/23 03:44:21;;;;;;;;;;;;;;;12.85;100.00;100130.25;5117840;27;20501;-85
2023/10/23 03:46:47;;;;;;;;;;;;;;;13.20;100.00;100132.09;5128408;27;19926;-84
2023/10/23 03:49:12;;;;;;;;;;;;;;;13.55;100.00;100130.44;5121381;27;19950;-84
2023/10/23 03:51:37;;;;;;;;;;;;;;;13.70;100.00;100136.09;5111716;28;19923;-84
2023/10/23 03:54:03;;;;;;;;;;;;;;;13.05;100.00;100129.88;5146549;27;19946;-84
2023/10/23 03:56:28;;;;;;;;;;;;;;;12.90;100.00;100126.88;5118660;27;19915;-85
2023/10/23 03:58:53;;;;;;;;;;;;;;;12.65;100.00;100132.44;5127423;27;19916;-84
2023/10/23 04:01:18;;;;;;;;;;;;;;;12.26;100.00;100137.38;5118588;27;19965;-84
2023/10/23 04:03:44;;;;;;;;;;;;;;;11.97;100.00;100137.16;5117610;27;20257;-84
2023/10/23 04:06:09;;;;;;;;;;;;;;;12.50;100.00;100134.72;5112565;28;19911;-85
2023/10/23 04:08:34;;;;;;;;;;;;;;;12.68;100.00;100140.00;5126671;27;19937;-84
2023/10/23 04:11:00;;;;;;;;;;;;;;;12.31;100.00;100142.81;5115880;27;20269;-84
2023/10/23 04:13:25;;;;;;;;;;;;;;;11.93;100.00;100132.47;5122269;27;20388;-84
2023/10/23 04:15:54;;;;;;;;;;;;;;;12.39;100.00;100136.34;5117266;27;19920;-85
2023/10/23 04:18:20;;;;;;;;;;;;;;;12.64;100.00;100134.28;5115465;27;19923;-83
2023/10/23 04:20:45;;;;;;;;;;;;;;;11.89;100.00;100129.44;5117403;27;19915;-84
2023/10/23 04:23:10;;;;;;;;;;;;;;;11.78;100.00;100135.50;5111188;28;19942;-84
2023/10/23 04:25:35;;;;;;;;;;;;;;;12.61;100.00;100140.13;5110071;28;19982;-84
2023/10/23 04:28:01;;;;;;;;;;;;;;;12.83;100.00;100143.06;5143293;27;20365;-84
2023/10/23 04:30:26;;;;;;;;;;;;;;;12.90;100.00;100139.44;5114485;27;19916;-84
2023/10/23 04:32:51;;;;;;;;;;;;;;;12.94;99.86;100143.28;5118163;27;20005;-85
2023/10/23 04:35:17;;;;;;;;;;;;;;;13.00;100.00;100143.16;5123947;27;20296;-83
2023/10/23 04:37:42;;;;;;;;;;;;;;;12.96;100.00;100151.91;5117733;27;19920;-85
2023/10/23 04:40:07;;;;;;;;;;;;;;;12.97;100.00;100153.50;5119683;27;19920;-84
2023/10/23 04:42:33;;;;;;;;;;;;;;;12.92;100.00;100145.38;5113613;27;19916;-83
2023/10/23 04:44:58;;;;;;;;;;;;;;;12.83;100.00;100148.41;5127498;27;19946;-84
2023/10/23 04:47:23;;;;;;;;;;;;;;;12.74;100.00;100144.44;5120006;27;19962;-85
2023/10/23 04:49:49;;;;;;;;;;;;;;;12.93;100.00;100158.50;5100014;27;19938;-84
2023/10/23 04:52:14;;;;;;;;;;;;;;;12.20;100.00;100146.28;5110315;28;20368;-84
2023/10/23 04:54:39;;;;;;;;;;;;;;;12.22;100.00;100155.72;5110394;27;19916;-85
2023/10/23 04:57:05;;;;;;;;;;;;;;;12.81;100.00;100166.56;5128677;27;19962;-85
2023/10/23 04:59:33;;;;;;;;;;;;;;;12.66;100.00;100158.94;5112019;27;20296;-84
2023/10/23 05:01:58;;;;;;;;;;;;;;;12.27;100.00;100163.03;5114407;27;19916;-84
2023/10/23 05:04:23;;;;;;;;;;;;;;;12.06;100.00;100167.03;5110838;28;19912;-85
2023/10/23 05:06:49;;;;;;;;;;;;;;;11.93;100.00;100175.22;5111077;28;19911;-84
2023/10/23 05:09:14;;;;;;;;;;;;;;;11.82;100.00;100163.41;5127083;27;20010;-84
2023/10/23 05:11:39;;;;;;;;;;;;;;;12.35;100.00;100167.25;5113201;27;19922;-84
2023/10/23 05:14:04;;;;;;;;;;;;;;;12.88;100.00;100160.28;5109589;28;19915;-86
2023/10/23 05:16:30;;;;;;;;;;;;;;;12.88;100.00;100170.97;5126726;27;19919;-84
2023/10/23 05:18:55;;;;;;;;;;;;;;;13.10;100.00;100169.38;5119786;27;20006;-85
2023/10/23 05:21:20;;;;;;;;;;;;;;;13.24;100.00;100175.31;5148542;27;19923;-86
2023/10/23 05:23:45;;;;;;;;;;;;;;;13.27;100.00;100175.63;5119038;28;19955;-85
2023/10/23 05:26:11;;;;;;;;;;;;;;;13.30;100.00;100178.91;5141810;27;19915;-85
2023/10/23 05:28:40;;;;;;;;;;;;;;;13.31;100.00;100172.53;5125150;28;19915;-84
2023/10/23 05:31:06;;;;;;;;;;;;;;;13.50;100.00;100182.03;5134108;27;19915;-85
2023/10/23 05:33:32;;;;;;;;;;;;;;;13.60;100.00;100184.94;5120712;28;19916;-84
2023/10/23 05:36:04;;;;;;;;;;;;;;;13.68;100.00;100191.00;5122519;28;19915;-85
2023/10/23 05:38:30;;;;;;;;;;;;;;;13.57;100.00;100188.09;5122406;28;19916;-86
2023/10/23 05:40:56;;;;;;;;;;;;;;;13.86;100.00;100194.31;5132075;28;19941;-85
2023/10/23 05:43:21;;;;;;;;;;;;;;;14.04;100.00;100197.91;5127187;28;19919;-85
2023/10/23 05:45:47;;;;;;;;;;;;;;;13.99;100.00;100193.22;5121947;28;19922;-84
2023/10/23 05:48:12;;;;;;;;;;;;;;;14.16;100.00;100195.16;5132975;28;19916;-85
2023/10/23 05:50:37;;;;;;;;;;;;;;;14.26;100.00;100208.75;5121349;28;20007;-85
2023/10/23 05:53:03;;;;;;;;;;;;;;;13.79;100.00;100212.44;5125180;28;19915;-85
2023/10/23 05:55:28;;;;;;;;;;;;;;;13.49;100.00;100209.09;5118902;28;19915;-85
2023/10/23 05:57:54;;;;;;;;;;;;;;;13.71;100.00;100215.47;5110639;28;20535;-85
2023/10/23 06:00:19;;;;;;;;;;;;;;;14.21;100.00;100214.03;5112438;28;19916;-84
2023/10/23 06:02:44;;;;;;;;;;;;;;;14.33;100.00;100224.72;5113926;28;20344;-85
2023/10/23 06:05:09;;;;;;;;;;;;;;;13.91;100.00;100223.09;5121773;28;19916;-85
2023/10/23 06:07:35;;;;;;;;;;;;;;;13.63;100.00;100222.00;5116672;28;19943;-84
2023/10/23 06:10:00;;;;;;;;;;;;;;;13.57;100.00;100228.28;5126257;28;20011;-84
2023/10/23 06:12:25;;;;;;;;;;;;;;;13.72;100.00;100227.00;5127275;28;19915;-84
2023/10/23 06:14:51;;;;;;;;;;;;;;;13.71;100.00;100228.03;5121351;28;19915;-85
2023/10/23 06:17:16;;;;;;;;;;;;;;;13.54;100.00;100227.94;5121675;28;20010;-83
2023/10/23 06:19:41;;;;;;;;;;;;;;;13.98;100.00;100228.34;5115249;28;19995;-84
2023/10/23 06:22:06;;;;;;;;;;;;;;;14.33;100.00;100230.09;5107416;28;20469;-83
2023/10/23 06:24:32;;;;;;;;;;;;;;;14.18;100.00;100241.31;5109900;28;19927;-83
2023/10/23 06:26:57;;;;;;;;;;;;;;;14.19;100.00;100240.28;5105048;27;19915;-85
2023/10/23 06:29:23;;;;;;;;;;;;;;;14.50;100.00;100247.03;5114340;27;20007;-84
2023/10/23 06:31:48;;;;;;;;;;;;;;;14.83;99.24;100238.28;5113597;28;19969;-84
2023/10/23 06:34:14;;;;;;;;;;;;;;;14.64;99.33;100234.97;5111484;28;19915;-85
2023/10/23 06:36:41;;;;;;;;;;;;;;;14.64;100.00;100239.53;5118375;27;19923;-85
2023/10/23 06:39:07;;;;;;;;;;;;;;;14.12;100.00;100239.59;5115474;27;19916;-85
2023/10/23 06:41:33;;;;;;;;;;;;;;;14.01;100.00;100235.91;5110021;27;20014;-84
2023/10/23 06:43:58;;;;;;;;;;;;;;;14.07;100.00;100245.69;5129525;27;20010;-85
2023/10/23 06:46:24;;;;;;;;;;;;;;;14.42;100.00;100245.56;5114428;27;19924;-85
2023/10/23 06:48:49;;;;;;;;;;;;;;;14.92;100.00;100246.75;5116405;27;19915;-86
2023/10/23 06:51:14;;;;;;;;;;;;;;;15.24;99.19;100256.91;5113193;27;19916;-85
2023/10/23 06:53:39;;;;;;;;;;;;;;;15.29;99.82;100237.38;5112769;27;19970;-84
2023/10/23 06:56:05;;;;;;;;;;;;;;;15.39;98.66;100246.41;5111090;28;20326;-85
2023/10/23 06:58:31;;;;;;;;;;;;;;;15.99;96.26;100244.81;5112001;28;19986;-85
2023/10/23 07:00:56;;;;;;;;;;;;;;;16.40;92.77;100255.25;5113687;27;19915;-85
2023/10/23 07:03:22;;;;;;;;;;;;;;;16.84;89.09;100268.66;5114588;27;20361;-86
2023/10/23 07:05:50;;;;;;;;;;;;;;;16.25;93.40;100261.28;5108857;28;19980;-84
2023/10/23 07:08:15;;;;;;;;;;;;;;;16.37;93.14;100255.75;5111211;27;19990;-85
2023/10/23 07:10:40;;;;;;;;;;;;;;;16.50;92.20;100249.97;5110918;27;20018;-86
2023/10/23 07:13:06;;;;;;;;;;;;;;;16.59;91.35;100248.47;5111593;27;20536;-85
2023/10/23 07:15:34;;;;;;;;;;;;;;;16.30;94.60;100247.88;5111606;27;19920;-84
2023/10/23 07:18:00;;;;;;;;;;;;;;;16.47;92.06;100240.53;5119309;27;19912;-83
2023/10/23 07:20:25;;;;;;;;;;;;;;;16.31;93.49;100236.06;5111811;27;20040;-84
2023/10/23 07:22:51;;;;;;;;;;;;;;;16.26;95.09;100241.34;5110926;27;20415;-82
2023/10/23 07:25:16;;;;;;;;;;;;;;;16.48;94.97;100236.75;5112871;27;19922;-84
2023/10/23 07:27:41;;;;;;;;;;;;;;;16.59;93.95;100232.31;5105588;27;20368;-83
2023/10/23 07:30:07;;;;;;;;;;;;;;;16.94;91.98;100231.03;5121437;27;19916;-84
2023/10/23 07:32:35;;;;;;;;;;;;;;;17.12;91.46;100237.06;5120859;27;19919;-84
2023/10/23 07:35:01;;;;;;;;;;;;;;;17.34;89.45;100231.56;5109923;27;20376;-85
2023/10/23 07:37:27;;;;;;;;;;;;;;;17.47;89.51;100236.53;5123087;27;19920;-84
2023/10/23 07:39:52;;;;;;;;;;;;;;;17.55;88.34;100230.66;5109678;28;19969;-84
2023/10/23 07:42:18;;;;;;;;;;;;;;;17.89;85.62;100235.69;5116305;27;20411;-84
2023/10/23 07:44:43;;;;;;;;;;;;;;;18.08;85.15;100227.91;5122475;27;19915;-83
2023/10/23 07:47:08;;;;;;;;;;;;;;;18.28;85.13;100232.59;5116275;27;19923;-83
2023/10/23 07:49:33;;;;;;;;;;;;;;;18.39;82.13;100233.44;5113777;27;20380;-85
2023/10/23 07:51:59;;;;;;;;;;;;;;;18.83;81.22;100228.38;5109867;27;19976;-84
2023/10/23 07:54:24;;;;;;;;;;;;;;;18.86;80.22;100230.56;5130658;27;20412;-84
2023/10/23 07:56:49;;;;;;;;;;;;;;;19.25;77.13;100235.41;5110315;28;19916;-85
2023/10/23 07:59:16;;;;;;;;;;;;;;;19.05;78.67;100228.09;5119229;27;20055;-84
2023/10/23 08:01:41;;;;;;;;;;;;;;;18.91;78.92;100215.41;5116181;27;19926;-84
2023/10/23 08:04:07;;;;;;;;;;;;;;;18.86;79.17;100219.75;5119388;27;19924;-84
2023/10/23 08:06:32;;;;;;;;;;;;;;;19.19;77.90;100225.66;5129516;27;19926;-85
2023/10/23 08:08:57;;;;;;;;;;;;;;;19.19;77.24;100227.56;5119895;27;20006;-83
2023/10/23 08:11:22;;;;;;;;;;;;;;;19.41;77.22;100216.44;5109687;27;19916;-83
2023/10/23 08:13:48;;;;;;;;;;;;;;;19.57;76.47;100219.91;5109813;27;19958;-84
2023/10/23 08:16:13;;;;;;;;;;;;;;;19.37;75.99;100215.34;5110765;27;19968;-85
2023/10/23 08:18:39;;;;;;;;;;;;;;;19.51;76.79;100219.09;5108698;28;19950;-84
2023/10/23 08:21:09;;;;;;;;;;;;;;;19.47;75.68;100220.75;5108778;27;19916;-83
2023/10/23 08:23:34;;;;;;;;;;;;;;;19.39;76.72;100224.84;5108212;28;19915;-83
2023/10/23 08:25:59;;;;;;;;;;;;;;;19.35;76.00;100221.06;5120155;27;19915;-84
2023/10/23 08:28:25;;;;;;;;;;;;;;;19.47;74.39;100220.75;5110193;27;19923;-84
2023/10/23 08:30:50;;;;;;;;;;;;;;;19.39;74.19;100219.44;5110660;27;19915;-84
2023/10/23 08:33:15;;;;;;;;;;;;;;;19.54;75.33;100220.47;5109512;28;20068;-83
2023/10/23 08:35:41;;;;;;;;;;;;;;;19.68;73.35;100227.72;5112276;27;19916;-83
2023/10/23 08:38:06;;;;;;;;;;;;;;;19.84;71.42;100215.00;5143372;27;20330;-84
2023/10/23 08:40:32;;;;;;;;;;;;;;;20.08;72.14;100214.31;5125311;27;19998;-85
2023/10/23 08:42:57;;;;;;;;;;;;;;;19.95;71.89;100210.34;5125683;27;19954;-83
2023/10/23 08:45:25;;;;;;;;;;;;;;;20.26;70.85;100210.97;5124625;27;19943;-83
2023/10/23 08:47:50;;;;;;;;;;;;;;;20.46;72.72;100207.34;5109095;27;19951;-84
2023/10/23 08:50:15;;;;;;;;;;;;;;;20.75;70.22;100205.81;5108643;28;20480;-85
2023/10/23 08:52:45;;;;;;;;;;;;;;;21.11;66.56;100209.03;5126246;27;20010;-84
2023/10/23 08:55:13;;;;;;;;;;;;;;;21.52;64.24;100203.22;5110141;28;19922;-85
2023/10/23 08:57:41;;;;;;;;;;;;;;;21.84;64.01;100209.88;5120820;27;19922;-84
2023/10/23 09:00:07;;;;;;;;;;;;;;;22.11;61.38;100214.72;5114663;27;19912;-85
2023/10/23 09:02:33;;;;;;;;;;;;;;;22.51;61.16;100211.72;5127979;27;20307;-85
2023/10/23 09:04:58;;;;;;;;;;;;;;;22.70;60.07;100206.25;5111476;27;19938;-84
2023/10/23 09:07:23;;;;;;;;;;;;;;;23.07;56.94;100213.56;5110507;28;20444;-85
2023/10/23 09:09:49;;;;;;;;;;;;;;;23.08;57.44;100214.38;5109818;28;20398;-84
2023/10/23 09:12:28;;;;;;;;;;;;;;;23.42;56.84;100214.03;5109605;27;19915;-85
2023/10/23 09:14:54;;;;;;;;;;;;;;;23.50;55.56;100215.22;5122837;27;20005;-83
2023/10/23 09:17:20;;;;;;;;;;;;;;;23.64;54.86;100211.41;5112274;28;20014;-84
2023/10/23 09:19:48;;;;;;;;;;;;;;;24.03;53.09;100207.38;5108907;28;20381;-84
2023/10/23 09:22:13;;;;;;;;;;;;;;;24.18;51.09;100210.88;5112154;28;19931;-85
2023/10/23 09:24:38;;;;;;;;;;;;;;;24.47;50.33;100205.03;5111369;28;19915;-84
2023/10/23 09:27:04;;;;;;;;;;;;;;;24.39;49.63;100205.75;5111001;28;19916;-85
2023/10/23 09:29:29;;;;;;;;;;;;;;;24.29;51.79;100186.91;5125894;28;19915;-84
2023/10/23 09:31:57;;;;;;;;;;;;;;;24.73;49.65;100196.28;5110162;28;20304;-84
2023/10/23 09:34:22;;;;;;;;;;;;;;;24.83;48.29;100180.44;5109801;28;19916;-84
2023/10/23 09:36:51;;;;;;;;;;;;;;;25.00;47.72;100185.19;5109486;28;19923;-84
2023/10/23 09:39:17;;;;;;;;;;;;;;;25.15;48.57;100185.91;5108527;28;19995;-85
2023/10/23 09:41:45;;;;;;;;;;;;;;;25.32;46.90;100172.38;5125279;27;20403;-86
2023/10/23 09:44:12;;;;;;;;;;;;;;;25.35;45.96;100176.41;5113582;28;19916;-84
2023/10/23 09:46:42;;;;;;;;;;;;;;;25.49;45.88;100174.38;5125644;28;20379;-84
2023/10/23 09:49:10;;;;;;;;;;;;;;;25.42;44.79;100163.91;5113177;28;19920;-84
2023/10/23 09:51:38;;;;;;;;;;;;;;;25.91;45.56;100152.97;5124771;28;19999;-85
2023/10/23 09:54:09;;;;;;;;;;;;;;;26.26;43.32;100163.91;5123786;28;19912;-84
2023/10/23 09:56:35;;;;;;;;;;;;;;;26.17;42.45;100152.97;5107799;28;19916;-85
2023/10/23 09:59:04;;;;;;;;;;;;;;;26.05;43.68;100150.06;5111558;28;19938;-84
2023/10/23 10:01:39;;;;;;;;;;;;;;;26.03;42.12;100150.41;5128371;27;19998;-84
2023/10/23 10:04:11;;;;;;;;;;;;;;;25.97;43.45;100142.66;5127914;27;20030;-84
2023/10/23 10:06:39;;;;;;;;;;;;;;;26.10;44.53;100138.19;5116044;27;19916;-84
2023/10/23 10:09:08;;;;;;;;;;;;;;;25.90;44.13;100126.75;5113463;28;19992;-84
2023/10/23 10:11:33;;;;;;;;;;;;;;;26.59;43.17;100127.88;5112428;27;19961;-85
2023/10/23 10:13:59;;;;;;;;;;;;;;;26.98;41.70;100128.72;5113951;27;19916;-83
2023/10/23 10:16:24;;;;;;;;;;;;;;;27.36;40.59;100128.75;5127922;27;19967;-84
2023/10/23 10:18:50;;;;;;;;;;;;;;;27.17;41.11;100123.66;5122872;27;19912;-83
2023/10/23 10:21:19;;;;;;;;;;;;;;;26.82;41.58;100126.53;5110821;28;20389;-84
2023/10/23 10:23:45;;;;;;;;;;;;;;;27.20;40.02;100124.94;5113000;28;19922;-84
2023/10/23 10:26:11;;;;;;;;;;;;;;;27.52;39.64;100120.75;5112779;27;19919;-84
2023/10/23 10:28:36;;;;;;;;;;;;;;;27.75;38.52;100112.25;5111699;28;19912;-84
2023/10/23 10:31:01;;;;;;;;;;;;;;;28.10;37.35;100112.00;5108644;27;20045;-85
2023/10/23 10:33:31;;;;;;;;;;;;;;;27.84;37.30;100111.03;5120662;27;19958;-84
2023/10/23 10:36:16;;;;;;;;;;;;;;;27.89;38.47;100103.78;5110361;27;19912;-84
2023/10/23 10:38:43;;;;;;;;;;;;;;;27.97;37.17;100102.91;5111506;28;19915;-84
2023/10/23 10:41:16;;;;;;;;;;;;;;;28.24;38.29;100102.34;5120944;27;19930;-84
2023/10/23 10:43:43;;;;;;;;;;;;;;;28.27;37.00;100100.88;5116293;27;19920;-84
2023/10/23 10:46:21;;;;;;;;;;;;;;;28.14;37.16;100091.81;5110670;28;20347;-84
2023/10/23 10:48:48;;;;;;;;;;;;;;;27.90;36.80;100097.97;5125016;27;19992;-83
2023/10/23 10:51:23;;;;;;;;;;;;;;;28.01;37.69;100085.47;5136534;27;20516;-84
2023/10/23 10:53:54;;;;;;;;;;;;;;;28.18;36.41;100086.44;5116359;27;19922;-85
2023/10/23 10:56:22;;;;;;;;;;;;;;;28.94;36.44;100089.84;5113415;27;19927;-84
2023/10/23 10:58:47;;;;;;;;;;;;;;;29.16;35.49;100089.44;5115925;27;19915;-85
2023/10/23 11:01:12;;;;;;;;;;;;;;;29.56;34.71;100082.38;5119431;27;20304;-84
2023/10/23 11:03:38;;;;;;;;;;;;;;;28.82;35.32;100079.66;5116251;27;19916;-85
2023/10/23 11:06:06;;;;;;;;;;;;;;;29.04;35.13;100089.41;5123433;27;20327;-85
2023/10/23 11:08:32;;;;;;;;;;;;;;;29.20;34.99;100076.59;5120149;27;19916;-84
2023/10/23 11:11:00;;;;;;;;;;;;;;;29.76;33.55;100083.41;5128610;27;19922;-84
2023/10/23 11:13:25;;;;;;;;;;;;;;;29.70;33.14;100082.03;5114827;27;19975;-84
2023/10/23 11:15:55;;;;;;;;;;;;;;;30.03;32.73;100082.59;5122093;27;19979;-83
2023/10/23 11:18:20;;;;;;;;;;;;;;;30.41;33.47;100078.56;5114047;27;19996;-84
2023/10/23 11:20:46;;;;;;;;;;;;;;;30.00;32.62;100069.56;5111553;28;19912;-84
2023/10/23 11:23:17;;;;;;;;;;;;;;;29.73;33.98;100060.19;5111848;27;20361;-85
2023/10/23 11:25:46;;;;;;;;;;;;;;;29.40;33.60;100071.31;5123603;27;19937;-84
2023/10/23 11:28:12;;;;;;;;;;;;;;;29.79;34.34;100063.47;5111867;28;20289;-83
2023/10/23 11:30:43;;;;;;;;;;;;;;;29.46;33.03;100056.19;5128720;27;19976;-85
2023/10/23 11:33:09;;;;;;;;;;;;;;;29.86;33.46;100060.13;5112455;27;19920;-84
2023/10/23 11:35:34;;;;;;;;;;;;;;;30.35;33.12;100057.97;5126718;27;19915;-84
2023/10/23 11:37:59;;;;;;;;;;;;;;;30.34;31.60;100059.13;5110844;28;19939;-85
2023/10/23 11:40:25;;;;;;;;;;;;;;;30.49;32.24;100062.25;5124283;27;19915;-84
2023/10/23 11:42:54;;;;;;;;;;;;;;;30.72;32.80;100063.25;5113946;27;19915;-84
2023/10/23 11:45:22;;;;;;;;;;;;;;;30.66;32.25;100067.41;5105142;27;19919;-85
2023/10/23 11:47:49;;;;;;;;;;;;;;;30.73;31.56;100059.34;5109847;28;19922;-84
2023/10/23 11:50:14;;;;;;;;;;;;;;;30.71;31.07;100061.66;5110489;28;19915;-83
2023/10/23 11:52:47;;;;;;;;;;;;;;;30.63;31.29;100059.88;5110887;28;19911;-85
2023/10/23 11:55:16;;;;;;;;;;;;;;;30.11;31.93;100055.31;5113400;27;19911;-85
2023/10/23 11:57:44;;;;;;;;;;;;;;;30.67;30.70;100052.50;5114759;27;19920;-86
2023/10/23 12:00:11;;;;;;;;;;;;;;;30.68;30.64;100056.84;5118702;27;20299;-85
2023/10/23 12:02:48;;;;;;;;;;;;;;;30.72;30.14;100054.97;5119231;27;19938;-85
2023/10/23 12:05:18;;;;;;;;;;;;;;;30.93;30.77;100048.41;5140703;27;20296;-85
2023/10/23 12:07:46;;;;;;;;;;;;;;;30.88;31.77;100056.97;5113137;27;19920;-84
2023/10/23 12:10:14;;;;;;;;;;;;;;;31.51;29.41;100058.84;5121811;27;20360;-84
2023/10/23 12:12:40;;;;;;;;;;;;;;;31.38;30.19;100047.09;5126240;27;20388;-84
2023/10/23 12:15:09;;;;;;;;;;;;;;;31.81;28.86;100051.59;5125730;27;20340;-83
2023/10/23 12:17:38;;;;;;;;;;;;;;;31.71;28.64;100045.84;5125849;27;19922;-85
2023/10/23 12:20:07;;;;;;;;;;;;;;;31.60;28.57;100046.41;5115317;27;19915;-84
2023/10/23 12:22:36;;;;;;;;;;;;;;;31.99;28.83;100043.69;5121008;27;19916;-85
2023/10/23 12:25:04;;;;;;;;;;;;;;;31.92;28.39;100038.00;5109384;27;19930;-84